sensor_id;sensor_type;location;lat;lon;timestamp;P1;durP1;ratioP1;P2;durP2;ratioP2
17145;SDS011;8688;54.444;18.444;2023-08-20T00:01:12;24.23;;;19.83;;
17145;SDS011;8688;54.444;18.444;2023-08-20T00:03:46;22.85;;;19.70;;
17145;SDS011;8688;54.444;18.444;2023-08-20T00:06:15;24.83;;;20.25;;
17145;SDS011;8688;54.444;18.444;2023-08-20T00:08:43;25.52;;;19.40;;
17145;SDS011;8688;54.444;18.444;2023-08-20T00:11:11;26.23;;;20.35;;
17145;SDS011;8688;54.444;18.444;2023-08-20T00:13:39;28.65;;;22.92;;
17145;SDS011;8688;54.444;18.444;2023-08-20T00:16:09;29.05;;;22.02;;
17145;SDS011;8688;54.444;18.444;2023-08-20T00:18:38;24.52;;;21.02;;
17145;SDS011;8688;54.444;18.444;2023-08-20T00:21:06;24.85;;;20.95;;
17145;SDS011;8688;54.444;18.444;2023-08-20T00:23:34;25.90;;;20.63;;
17145;SDS011;8688;54.444;18.444;2023-08-20T00:26:03;25.80;;;21.48;;
17145;SDS011;8688;54.444;18.444;2023-08-20T00:28:31;24.67;;;20.58;;
17145;SDS011;8688;54.444;18.444;2023-08-20T00:30:59;23.48;;;20.30;;
17145;SDS011;8688;54.444;18.444;2023-08-20T00:33:29;28.92;;;21.75;;
17145;SDS011;8688;54.444;18.444;2023-08-20T00:35:57;28.10;;;20.00;;
17145;SDS011;8688;54.444;18.444;2023-08-20T00:38:25;25.50;;;20.40;;
17145;SDS011;8688;54.444;18.444;2023-08-20T00:40:52;21.45;;;18.45;;
17145;SDS011;8688;54.444;18.444;2023-08-20T00:43:20;20.90;;;17.90;;
17145;SDS011;8688;54.444;18.444;2023-08-20T00:45:49;20.63;;;18.35;;
17145;SDS011;8688;54.444;18.444;2023-08-20T00:48:17;20.17;;;16.80;;
17145;SDS011;8688;54.444;18.444;2023-08-20T00:50:46;22.75;;;17.10;;
17145;SDS011;8688;54.444;18.444;2023-08-20T00:53:14;22.33;;;16.77;;
17145;SDS011;8688;54.444;18.444;2023-08-20T00:55:42;18.38;;;16.40;;
17145;SDS011;8688;54.444;18.444;2023-08-20T00:58:10;18.80;;;16.77;;
17145;SDS011;8688;54.444;18.444;2023-08-20T01:00:40;19.73;;;17.63;;
17145;SDS011;8688;54.444;18.444;2023-08-20T01:03:08;20.58;;;17.08;;
17145;SDS011;8688;54.444;18.444;2023-08-20T01:05:37;20.10;;;16.98;;
17145;SDS011;8688;54.444;18.444;2023-08-20T01:08:18;18.00;;;16.20;;
17145;SDS011;8688;54.444;18.444;2023-08-20T01:10:56;18.92;;;16.77;;
17145;SDS011;8688;54.444;18.444;2023-08-20T01:13:28;17.95;;;16.05;;
17145;SDS011;8688;54.444;18.444;2023-08-20T01:15:56;19.02;;;15.38;;
17145;SDS011;8688;54.444;18.444;2023-08-20T01:18:23;16.85;;;15.05;;
17145;SDS011;8688;54.444;18.444;2023-08-20T01:20:51;16.65;;;14.48;;
17145;SDS011;8688;54.444;18.444;2023-08-20T01:23:39;18.27;;;15.60;;
17145;SDS011;8688;54.444;18.444;2023-08-20T01:26:35;16.55;;;14.90;;
17145;SDS011;8688;54.444;18.444;2023-08-20T01:29:16;16.85;;;15.05;;
17145;SDS011;8688;54.444;18.444;2023-08-20T01:31:44;17.73;;;15.82;;
17145;SDS011;8688;54.444;18.444;2023-08-20T01:34:13;18.08;;;16.15;;
17145;SDS011;8688;54.444;18.444;2023-08-20T01:36:41;20.08;;;17.00;;
17145;SDS011;8688;54.444;18.444;2023-08-20T01:39:08;18.02;;;16.00;;
17145;SDS011;8688;54.444;18.444;2023-08-20T01:41:36;16.75;;;14.38;;
17145;SDS011;8688;54.444;18.444;2023-08-20T01:44:04;18.90;;;15.32;;
17145;SDS011;8688;54.444;18.444;2023-08-20T01:46:33;17.85;;;14.55;;
17145;SDS011;8688;54.444;18.444;2023-08-20T01:49:00;17.45;;;14.13;;
17145;SDS011;8688;54.444;18.444;2023-08-20T01:51:28;21.73;;;14.45;;
17145;SDS011;8688;54.444;18.444;2023-08-20T01:53:56;19.55;;;15.43;;
17145;SDS011;8688;54.444;18.444;2023-08-20T01:56:23;20.35;;;17.80;;
17145;SDS011;8688;54.444;18.444;2023-08-20T01:58:51;22.55;;;17.52;;
17145;SDS011;8688;54.444;18.444;2023-08-20T02:01:18;22.00;;;18.92;;
17145;SDS011;8688;54.444;18.444;2023-08-20T02:03:48;23.50;;;18.58;;
17145;SDS011;8688;54.444;18.444;2023-08-20T02:06:16;22.48;;;18.83;;
17145;SDS011;8688;54.444;18.444;2023-08-20T02:08:45;21.67;;;17.88;;
17145;SDS011;8688;54.444;18.444;2023-08-20T02:11:13;21.33;;;16.17;;
17145;SDS011;8688;54.444;18.444;2023-08-20T02:13:41;23.10;;;17.00;;
17145;SDS011;8688;54.444;18.444;2023-08-20T02:16:31;19.90;;;16.88;;
17145;SDS011;8688;54.444;18.444;2023-08-20T02:19:01;22.85;;;16.38;;
17145;SDS011;8688;54.444;18.444;2023-08-20T02:21:30;20.63;;;18.00;;
17145;SDS011;8688;54.444;18.444;2023-08-20T02:23:58;22.83;;;17.60;;
17145;SDS011;8688;54.444;18.444;2023-08-20T02:26:26;21.27;;;18.10;;
17145;SDS011;8688;54.444;18.444;2023-08-20T02:28:54;23.25;;;18.27;;
17145;SDS011;8688;54.444;18.444;2023-08-20T02:31:23;22.90;;;18.75;;
17145;SDS011;8688;54.444;18.444;2023-08-20T02:33:51;25.35;;;20.05;;
17145;SDS011;8688;54.444;18.444;2023-08-20T02:36:20;21.85;;;18.17;;
17145;SDS011;8688;54.444;18.444;2023-08-20T02:38:48;21.88;;;19.55;;
17145;SDS011;8688;54.444;18.444;2023-08-20T02:41:16;28.15;;;19.65;;
17145;SDS011;8688;54.444;18.444;2023-08-20T02:43:45;23.95;;;17.15;;
17145;SDS011;8688;54.444;18.444;2023-08-20T02:46:12;21.50;;;17.10;;
17145;SDS011;8688;54.444;18.444;2023-08-20T02:48:40;20.88;;;16.85;;
17145;SDS011;8688;54.444;18.444;2023-08-20T02:51:09;17.80;;;15.52;;
17145;SDS011;8688;54.444;18.444;2023-08-20T02:53:38;19.17;;;15.35;;
17145;SDS011;8688;54.444;18.444;2023-08-20T02:56:06;19.42;;;16.38;;
17145;SDS011;8688;54.444;18.444;2023-08-20T02:58:34;20.60;;;17.23;;
17145;SDS011;8688;54.444;18.444;2023-08-20T03:01:02;19.98;;;16.63;;
17145;SDS011;8688;54.444;18.444;2023-08-20T03:03:31;21.52;;;17.58;;
17145;SDS011;8688;54.444;18.444;2023-08-20T03:05:59;23.40;;;17.38;;
17145;SDS011;8688;54.444;18.444;2023-08-20T03:08:27;23.00;;;18.30;;
17145;SDS011;8688;54.444;18.444;2023-08-20T03:10:59;23.13;;;19.08;;
17145;SDS011;8688;54.444;18.444;2023-08-20T03:13:28;23.80;;;19.50;;
17145;SDS011;8688;54.444;18.444;2023-08-20T03:15:56;23.70;;;20.38;;
17145;SDS011;8688;54.444;18.444;2023-08-20T03:18:24;24.17;;;19.75;;
17145;SDS011;8688;54.444;18.444;2023-08-20T03:20:54;24.95;;;19.33;;
17145;SDS011;8688;54.444;18.444;2023-08-20T03:23:22;21.15;;;18.20;;
17145;SDS011;8688;54.444;18.444;2023-08-20T03:25:51;25.70;;;18.88;;
17145;SDS011;8688;54.444;18.444;2023-08-20T03:28:21;25.52;;;20.88;;
17145;SDS011;8688;54.444;18.444;2023-08-20T03:30:49;26.65;;;22.20;;
17145;SDS011;8688;54.444;18.444;2023-08-20T03:33:16;24.00;;;20.73;;
17145;SDS011;8688;54.444;18.444;2023-08-20T03:35:45;27.05;;;19.83;;
17145;SDS011;8688;54.444;18.444;2023-08-20T03:38:13;25.67;;;21.40;;
17145;SDS011;8688;54.444;18.444;2023-08-20T03:40:41;30.85;;;22.95;;
17145;SDS011;8688;54.444;18.444;2023-08-20T03:43:10;30.80;;;22.48;;
17145;SDS011;8688;54.444;18.444;2023-08-20T03:45:40;26.27;;;20.45;;
17145;SDS011;8688;54.444;18.444;2023-08-20T03:48:08;27.15;;;21.17;;
17145;SDS011;8688;54.444;18.444;2023-08-20T03:50:36;25.27;;;21.15;;
17145;SDS011;8688;54.444;18.444;2023-08-20T03:53:04;26.38;;;21.80;;
17145;SDS011;8688;54.444;18.444;2023-08-20T03:55:32;27.08;;;21.38;;
17145;SDS011;8688;54.444;18.444;2023-08-20T03:58:00;28.05;;;22.15;;
17145;SDS011;8688;54.444;18.444;2023-08-20T04:00:28;27.60;;;22.75;;
17145;SDS011;8688;54.444;18.444;2023-08-20T04:02:58;25.80;;;21.70;;
17145;SDS011;8688;54.444;18.444;2023-08-20T04:05:25;27.38;;;22.40;;
17145;SDS011;8688;54.444;18.444;2023-08-20T04:07:54;23.67;;;21.17;;
17145;SDS011;8688;54.444;18.444;2023-08-20T04:10:22;24.98;;;20.90;;
17145;SDS011;8688;54.444;18.444;2023-08-20T04:12:50;26.92;;;22.17;;
17145;SDS011;8688;54.444;18.444;2023-08-20T04:15:18;24.63;;;21.92;;
17145;SDS011;8688;54.444;18.444;2023-08-20T04:17:46;25.92;;;22.25;;
17145;SDS011;8688;54.444;18.444;2023-08-20T04:20:16;26.23;;;22.58;;
17145;SDS011;8688;54.444;18.444;2023-08-20T04:22:45;23.88;;;21.27;;
17145;SDS011;8688;54.444;18.444;2023-08-20T04:25:13;26.48;;;21.63;;
17145;SDS011;8688;54.444;18.444;2023-08-20T04:27:41;23.35;;;20.75;;
17145;SDS011;8688;54.444;18.444;2023-08-20T04:30:09;23.17;;;20.65;;
17145;SDS011;8688;54.444;18.444;2023-08-20T04:32:38;26.10;;;21.23;;
17145;SDS011;8688;54.444;18.444;2023-08-20T04:35:06;26.00;;;22.23;;
17145;SDS011;8688;54.444;18.444;2023-08-20T04:37:36;24.73;;;21.52;;
17145;SDS011;8688;54.444;18.444;2023-08-20T04:40:05;25.27;;;22.00;;
17145;SDS011;8688;54.444;18.444;2023-08-20T04:42:36;24.60;;;20.45;;
17145;SDS011;8688;54.444;18.444;2023-08-20T04:45:04;25.00;;;20.98;;
17145;SDS011;8688;54.444;18.444;2023-08-20T04:47:33;22.63;;;20.30;;
17145;SDS011;8688;54.444;18.444;2023-08-20T04:50:02;27.23;;;21.52;;
17145;SDS011;8688;54.444;18.444;2023-08-20T04:52:32;23.38;;;20.70;;
17145;SDS011;8688;54.444;18.444;2023-08-20T04:55:02;23.65;;;21.17;;
17145;SDS011;8688;54.444;18.444;2023-08-20T04:57:32;23.70;;;20.58;;
17145;SDS011;8688;54.444;18.444;2023-08-20T05:00:00;21.52;;;19.23;;
17145;SDS011;8688;54.444;18.444;2023-08-20T05:02:28;22.40;;;19.67;;
17145;SDS011;8688;54.444;18.444;2023-08-20T05:04:58;22.48;;;18.92;;
17145;SDS011;8688;54.444;18.444;2023-08-20T05:07:26;22.77;;;19.48;;
17145;SDS011;8688;54.444;18.444;2023-08-20T05:09:54;24.42;;;19.27;;
17145;SDS011;8688;54.444;18.444;2023-08-20T05:12:24;22.20;;;19.77;;
17145;SDS011;8688;54.444;18.444;2023-08-20T05:14:54;22.00;;;18.75;;
17145;SDS011;8688;54.444;18.444;2023-08-20T05:17:22;19.48;;;17.48;;
17145;SDS011;8688;54.444;18.444;2023-08-20T05:22:47;21.02;;;17.17;;
17145;SDS011;8688;54.444;18.444;2023-08-20T05:25:24;20.15;;;17.05;;
17145;SDS011;8688;54.444;18.444;2023-08-20T05:27:56;17.77;;;15.88;;
17145;SDS011;8688;54.444;18.444;2023-08-20T05:30:25;18.00;;;16.10;;
17145;SDS011;8688;54.444;18.444;2023-08-20T05:32:53;18.13;;;16.25;;
17145;SDS011;8688;54.444;18.444;2023-08-20T05:35:21;18.83;;;15.93;;
17145;SDS011;8688;54.444;18.444;2023-08-20T05:37:49;22.60;;;15.32;;
17145;SDS011;8688;54.444;18.444;2023-08-20T05:40:17;15.90;;;14.25;;
17145;SDS011;8688;54.444;18.444;2023-08-20T05:42:46;15.45;;;13.85;;
17145;SDS011;8688;54.444;18.444;2023-08-20T05:45:21;18.17;;;14.93;;
17145;SDS011;8688;54.444;18.444;2023-08-20T05:47:49;19.02;;;14.25;;
17145;SDS011;8688;54.444;18.444;2023-08-20T05:50:17;16.35;;;14.68;;
17145;SDS011;8688;54.444;18.444;2023-08-20T05:52:45;16.42;;;14.73;;
17145;SDS011;8688;54.444;18.444;2023-08-20T05:55:15;16.20;;;14.60;;
17145;SDS011;8688;54.444;18.444;2023-08-20T05:57:43;16.55;;;14.95;;
17145;SDS011;8688;54.444;18.444;2023-08-20T06:00:11;17.67;;;15.38;;
17145;SDS011;8688;54.444;18.444;2023-08-20T06:02:41;16.40;;;14.73;;
17145;SDS011;8688;54.444;18.444;2023-08-20T06:05:09;18.15;;;14.15;;
17145;SDS011;8688;54.444;18.444;2023-08-20T06:07:38;16.15;;;14.40;;
17145;SDS011;8688;54.444;18.444;2023-08-20T06:10:07;15.32;;;13.60;;
17145;SDS011;8688;54.444;18.444;2023-08-20T06:12:37;15.20;;;13.32;;
17145;SDS011;8688;54.444;18.444;2023-08-20T06:15:07;15.48;;;12.70;;
17145;SDS011;8688;54.444;18.444;2023-08-20T06:17:35;14.55;;;13.05;;
17145;SDS011;8688;54.444;18.444;2023-08-20T06:20:05;15.20;;;13.73;;
17145;SDS011;8688;54.444;18.444;2023-08-20T06:22:34;13.48;;;12.13;;
17145;SDS011;8688;54.444;18.444;2023-08-20T06:25:02;20.50;;;12.40;;
17145;SDS011;8688;54.444;18.444;2023-08-20T06:27:32;15.13;;;12.20;;
17145;SDS011;8688;54.444;18.444;2023-08-20T06:30:01;16.67;;;12.40;;
17145;SDS011;8688;54.444;18.444;2023-08-20T06:32:29;16.08;;;13.23;;
17145;SDS011;8688;54.444;18.444;2023-08-20T06:34:57;16.20;;;14.23;;
17145;SDS011;8688;54.444;18.444;2023-08-20T06:37:26;15.88;;;12.93;;
17145;SDS011;8688;54.444;18.444;2023-08-20T06:39:54;16.75;;;13.38;;
17145;SDS011;8688;54.444;18.444;2023-08-20T06:42:22;15.27;;;13.63;;
17145;SDS011;8688;54.444;18.444;2023-08-20T06:44:50;14.52;;;13.02;;
17145;SDS011;8688;54.444;18.444;2023-08-20T06:47:18;14.35;;;11.85;;
17145;SDS011;8688;54.444;18.444;2023-08-20T06:49:46;12.75;;;11.23;;
17145;SDS011;8688;54.444;18.444;2023-08-20T06:52:14;12.55;;;10.82;;
17145;SDS011;8688;54.444;18.444;2023-08-20T06:54:44;11.95;;;10.70;;
17145;SDS011;8688;54.444;18.444;2023-08-20T06:57:15;12.85;;;10.15;;
17145;SDS011;8688;54.444;18.444;2023-08-20T06:59:43;11.95;;;10.75;;
17145;SDS011;8688;54.444;18.444;2023-08-20T07:02:11;11.07;;;10.00;;
17145;SDS011;8688;54.444;18.444;2023-08-20T07:04:40;10.90;;;9.90;;
17145;SDS011;8688;54.444;18.444;2023-08-20T07:07:08;10.40;;;9.38;;
17145;SDS011;8688;54.444;18.444;2023-08-20T07:09:36;10.60;;;9.55;;
17145;SDS011;8688;54.444;18.444;2023-08-20T07:12:07;11.73;;;10.63;;
17145;SDS011;8688;54.444;18.444;2023-08-20T07:14:35;12.27;;;9.70;;
17145;SDS011;8688;54.444;18.444;2023-08-20T07:17:03;10.68;;;9.57;;
17145;SDS011;8688;54.444;18.444;2023-08-20T07:19:32;12.27;;;9.38;;
17145;SDS011;8688;54.444;18.444;2023-08-20T07:22:04;11.02;;;9.93;;
17145;SDS011;8688;54.444;18.444;2023-08-20T07:24:32;11.00;;;9.90;;
17145;SDS011;8688;54.444;18.444;2023-08-20T07:27:00;10.48;;;9.57;;
17145;SDS011;8688;54.444;18.444;2023-08-20T07:29:37;10.95;;;9.85;;
17145;SDS011;8688;54.444;18.444;2023-08-20T07:32:05;11.45;;;10.32;;
17145;SDS011;8688;54.444;18.444;2023-08-20T07:34:33;11.27;;;10.07;;
17145;SDS011;8688;54.444;18.444;2023-08-20T07:37:01;11.38;;;10.18;;
17145;SDS011;8688;54.444;18.444;2023-08-20T07:39:30;11.18;;;10.07;;
17145;SDS011;8688;54.444;18.444;2023-08-20T07:41:58;12.23;;;10.98;;
17145;SDS011;8688;54.444;18.444;2023-08-20T07:44:27;11.13;;;10.07;;
17145;SDS011;8688;54.444;18.444;2023-08-20T07:46:59;11.32;;;10.15;;
17145;SDS011;8688;54.444;18.444;2023-08-20T07:49:27;12.38;;;9.45;;
17145;SDS011;8688;54.444;18.444;2023-08-20T07:51:55;10.30;;;9.30;;
17145;SDS011;8688;54.444;18.444;2023-08-20T07:54:23;10.25;;;9.25;;
17145;SDS011;8688;54.444;18.444;2023-08-20T07:56:53;10.48;;;9.57;;
17145;SDS011;8688;54.444;18.444;2023-08-20T07:59:21;11.55;;;9.95;;
17145;SDS011;8688;54.444;18.444;2023-08-20T08:01:49;11.02;;;10.02;;
17145;SDS011;8688;54.444;18.444;2023-08-20T08:04:19;11.40;;;10.05;;
17145;SDS011;8688;54.444;18.444;2023-08-20T08:06:48;11.82;;;10.63;;
17145;SDS011;8688;54.444;18.444;2023-08-20T08:09:19;11.68;;;10.40;;
17145;SDS011;8688;54.444;18.444;2023-08-20T08:11:49;11.00;;;9.98;;
17145;SDS011;8688;54.444;18.444;2023-08-20T08:14:17;12.60;;;11.00;;
17145;SDS011;8688;54.444;18.444;2023-08-20T08:16:51;12.20;;;10.98;;
17145;SDS011;8688;54.444;18.444;2023-08-20T08:19:23;11.95;;;10.60;;
17145;SDS011;8688;54.444;18.444;2023-08-20T08:21:51;15.40;;;11.10;;
17145;SDS011;8688;54.444;18.444;2023-08-20T08:24:19;13.50;;;10.82;;
17145;SDS011;8688;54.444;18.444;2023-08-20T08:26:47;12.85;;;11.65;;
17145;SDS011;8688;54.444;18.444;2023-08-20T08:29:15;13.73;;;11.32;;
17145;SDS011;8688;54.444;18.444;2023-08-20T08:31:43;12.55;;;11.35;;
17145;SDS011;8688;54.444;18.444;2023-08-20T08:34:11;13.43;;;11.25;;
17145;SDS011;8688;54.444;18.444;2023-08-20T08:36:41;14.02;;;12.18;;
17145;SDS011;8688;54.444;18.444;2023-08-20T08:39:10;12.20;;;11.02;;
17145;SDS011;8688;54.444;18.444;2023-08-20T08:41:38;12.23;;;11.13;;
17145;SDS011;8688;54.444;18.444;2023-08-20T08:44:08;12.32;;;10.93;;
17145;SDS011;8688;54.444;18.444;2023-08-20T08:46:36;12.25;;;10.98;;
17145;SDS011;8688;54.444;18.444;2023-08-20T08:49:06;14.07;;;10.85;;
17145;SDS011;8688;54.444;18.444;2023-08-20T08:51:34;12.88;;;11.60;;
17145;SDS011;8688;54.444;18.444;2023-08-20T08:54:05;12.32;;;10.93;;
17145;SDS011;8688;54.444;18.444;2023-08-20T08:56:35;12.85;;;11.57;;
17145;SDS011;8688;54.444;18.444;2023-08-20T08:59:04;13.40;;;12.20;;
17145;SDS011;8688;54.444;18.444;2023-08-20T09:01:51;13.25;;;11.85;;
17145;SDS011;8688;54.444;18.444;2023-08-20T09:04:19;13.43;;;12.13;;
17145;SDS011;8688;54.444;18.444;2023-08-20T09:06:47;12.68;;;11.57;;
17145;SDS011;8688;54.444;18.444;2023-08-20T09:09:19;14.77;;;11.80;;
17145;SDS011;8688;54.444;18.444;2023-08-20T09:11:48;12.43;;;10.95;;
17145;SDS011;8688;54.444;18.444;2023-08-20T09:14:21;13.02;;;11.68;;
17145;SDS011;8688;54.444;18.444;2023-08-20T09:16:59;13.18;;;11.90;;
17145;SDS011;8688;54.444;18.444;2023-08-20T09:19:28;12.80;;;11.60;;
17145;SDS011;8688;54.444;18.444;2023-08-20T09:21:57;14.35;;;12.80;;
17145;SDS011;8688;54.444;18.444;2023-08-20T09:24:31;13.40;;;12.10;;
17145;SDS011;8688;54.444;18.444;2023-08-20T09:27:01;13.27;;;11.88;;
17145;SDS011;8688;54.444;18.444;2023-08-20T09:29:31;13.15;;;11.95;;
17145;SDS011;8688;54.444;18.444;2023-08-20T09:32:00;13.75;;;12.45;;
17145;SDS011;8688;54.444;18.444;2023-08-20T09:34:36;13.57;;;12.20;;
17145;SDS011;8688;54.444;18.444;2023-08-20T09:37:07;16.30;;;12.13;;
17145;SDS011;8688;54.444;18.444;2023-08-20T09:39:37;13.85;;;12.23;;
17145;SDS011;8688;54.444;18.444;2023-08-20T09:42:05;11.98;;;10.80;;
17145;SDS011;8688;54.444;18.444;2023-08-20T09:44:33;13.30;;;11.95;;
17145;SDS011;8688;54.444;18.444;2023-08-20T09:47:03;13.32;;;12.00;;
17145;SDS011;8688;54.444;18.444;2023-08-20T09:49:35;12.82;;;11.52;;
17145;SDS011;8688;54.444;18.444;2023-08-20T09:52:05;13.07;;;11.90;;
17145;SDS011;8688;54.444;18.444;2023-08-20T09:54:36;12.70;;;11.57;;
17145;SDS011;8688;54.444;18.444;2023-08-20T09:57:21;13.30;;;11.95;;
17145;SDS011;8688;54.444;18.444;2023-08-20T09:59:54;12.63;;;11.52;;
17145;SDS011;8688;54.444;18.444;2023-08-20T10:02:23;12.55;;;11.30;;
17145;SDS011;8688;54.444;18.444;2023-08-20T10:04:52;12.40;;;11.20;;
17145;SDS011;8688;54.444;18.444;2023-08-20T10:07:19;12.20;;;11.15;;
17145;SDS011;8688;54.444;18.444;2023-08-20T10:09:51;14.07;;;11.65;;
17145;SDS011;8688;54.444;18.444;2023-08-20T10:12:19;13.02;;;11.73;;
17145;SDS011;8688;54.444;18.444;2023-08-20T10:14:47;12.70;;;11.50;;
17145;SDS011;8688;54.444;18.444;2023-08-20T10:17:15;14.02;;;11.88;;
17145;SDS011;8688;54.444;18.444;2023-08-20T10:19:46;12.35;;;11.05;;
17145;SDS011;8688;54.444;18.444;2023-08-20T10:22:14;13.48;;;12.07;;
17145;SDS011;8688;54.444;18.444;2023-08-20T10:24:49;13.10;;;11.90;;
17145;SDS011;8688;54.444;18.444;2023-08-20T10:27:25;12.85;;;11.75;;
17145;SDS011;8688;54.444;18.444;2023-08-20T10:29:53;15.82;;;11.52;;
17145;SDS011;8688;54.444;18.444;2023-08-20T10:35:10;14.35;;;12.48;;
17145;SDS011;8688;54.444;18.444;2023-08-20T10:37:38;12.60;;;11.45;;
17145;SDS011;8688;54.444;18.444;2023-08-20T10:43:28;13.30;;;12.10;;
17145;SDS011;8688;54.444;18.444;2023-08-20T10:48:47;13.90;;;12.50;;
17145;SDS011;8688;54.444;18.444;2023-08-20T10:51:17;13.65;;;12.35;;
17145;SDS011;8688;54.444;18.444;2023-08-20T10:53:49;14.13;;;12.73;;
17145;SDS011;8688;54.444;18.444;2023-08-20T10:56:41;14.43;;;12.10;;
17145;SDS011;8688;54.444;18.444;2023-08-20T10:59:13;13.18;;;11.90;;
17145;SDS011;8688;54.444;18.444;2023-08-20T11:01:43;14.73;;;13.18;;
17145;SDS011;8688;54.444;18.444;2023-08-20T11:04:11;12.95;;;11.73;;
17145;SDS011;8688;54.444;18.444;2023-08-20T11:06:40;12.68;;;11.40;;
17145;SDS011;8688;54.444;18.444;2023-08-20T11:09:08;11.85;;;10.63;;
17145;SDS011;8688;54.444;18.444;2023-08-20T11:11:44;11.27;;;10.18;;
17145;SDS011;8688;54.444;18.444;2023-08-20T11:14:12;11.70;;;10.38;;
17145;SDS011;8688;54.444;18.444;2023-08-20T11:16:40;11.55;;;9.77;;
17145;SDS011;8688;54.444;18.444;2023-08-20T11:19:09;12.27;;;8.90;;
17145;SDS011;8688;54.444;18.444;2023-08-20T11:21:37;11.90;;;9.35;;
17145;SDS011;8688;54.444;18.444;2023-08-20T11:24:05;10.52;;;9.52;;
17145;SDS011;8688;54.444;18.444;2023-08-20T11:26:33;11.68;;;10.15;;
17145;SDS011;8688;54.444;18.444;2023-08-20T11:29:06;11.95;;;10.32;;
17145;SDS011;8688;54.444;18.444;2023-08-20T11:31:36;12.65;;;9.85;;
17145;SDS011;8688;54.444;18.444;2023-08-20T11:34:05;11.52;;;10.43;;
17145;SDS011;8688;54.444;18.444;2023-08-20T11:36:37;10.93;;;9.93;;
17145;SDS011;8688;54.444;18.444;2023-08-20T11:39:07;9.48;;;8.57;;
17145;SDS011;8688;54.444;18.444;2023-08-20T11:41:36;10.02;;;8.45;;
17145;SDS011;8688;54.444;18.444;2023-08-20T11:44:07;8.98;;;7.95;;
17145;SDS011;8688;54.444;18.444;2023-08-20T11:46:42;10.38;;;7.30;;
17145;SDS011;8688;54.444;18.444;2023-08-20T11:49:10;10.23;;;9.18;;
17145;SDS011;8688;54.444;18.444;2023-08-20T11:51:39;11.80;;;9.80;;
17145;SDS011;8688;54.444;18.444;2023-08-20T11:54:09;13.23;;;10.65;;
17145;SDS011;8688;54.444;18.444;2023-08-20T11:56:43;12.30;;;11.05;;
17145;SDS011;8688;54.444;18.444;2023-08-20T11:59:13;12.75;;;11.48;;
17145;SDS011;8688;54.444;18.444;2023-08-20T12:01:42;13.82;;;12.15;;
17145;SDS011;8688;54.444;18.444;2023-08-20T12:04:10;13.38;;;12.10;;
17145;SDS011;8688;54.444;18.444;2023-08-20T12:06:39;12.98;;;11.77;;
17145;SDS011;8688;54.444;18.444;2023-08-20T12:09:19;11.93;;;10.80;;
17145;SDS011;8688;54.444;18.444;2023-08-20T12:11:51;14.60;;;10.85;;
17145;SDS011;8688;54.444;18.444;2023-08-20T12:14:23;12.23;;;10.85;;
17145;SDS011;8688;54.444;18.444;2023-08-20T12:16:51;11.40;;;10.20;;
17145;SDS011;8688;54.444;18.444;2023-08-20T12:19:21;11.48;;;10.38;;
17145;SDS011;8688;54.444;18.444;2023-08-20T12:21:50;11.82;;;10.65;;
17145;SDS011;8688;54.444;18.444;2023-08-20T12:24:18;10.85;;;9.50;;
17145;SDS011;8688;54.444;18.444;2023-08-20T12:26:46;11.32;;;10.10;;
17145;SDS011;8688;54.444;18.444;2023-08-20T12:29:16;11.80;;;9.80;;
17145;SDS011;8688;54.444;18.444;2023-08-20T12:31:46;14.73;;;9.60;;
17145;SDS011;8688;54.444;18.444;2023-08-20T12:34:13;13.10;;;9.60;;
17145;SDS011;8688;54.444;18.444;2023-08-20T12:36:41;10.60;;;9.60;;
17145;SDS011;8688;54.444;18.444;2023-08-20T12:39:09;11.50;;;10.02;;
17145;SDS011;8688;54.444;18.444;2023-08-20T12:41:39;11.07;;;9.98;;
17145;SDS011;8688;54.444;18.444;2023-08-20T12:44:09;13.32;;;10.25;;
17145;SDS011;8688;54.444;18.444;2023-08-20T12:46:37;10.05;;;9.02;;
17145;SDS011;8688;54.444;18.444;2023-08-20T12:49:06;11.40;;;9.40;;
17145;SDS011;8688;54.444;18.444;2023-08-20T12:51:37;10.75;;;9.65;;
17145;SDS011;8688;54.444;18.444;2023-08-20T12:54:10;11.77;;;10.18;;
17145;SDS011;8688;54.444;18.444;2023-08-20T12:56:39;11.35;;;10.00;;
17145;SDS011;8688;54.444;18.444;2023-08-20T12:59:10;10.85;;;9.75;;
17145;SDS011;8688;54.444;18.444;2023-08-20T13:01:43;12.38;;;9.48;;
17145;SDS011;8688;54.444;18.444;2023-08-20T13:04:17;10.23;;;8.98;;
17145;SDS011;8688;54.444;18.444;2023-08-20T13:06:55;11.57;;;9.38;;
17145;SDS011;8688;54.444;18.444;2023-08-20T13:09:25;13.23;;;9.50;;
17145;SDS011;8688;54.444;18.444;2023-08-20T13:11:53;9.82;;;8.93;;
17145;SDS011;8688;54.444;18.444;2023-08-20T13:14:27;10.20;;;8.68;;
17145;SDS011;8688;54.444;18.444;2023-08-20T13:16:58;10.02;;;9.10;;
17145;SDS011;8688;54.444;18.444;2023-08-20T13:19:32;10.02;;;8.82;;
17145;SDS011;8688;54.444;18.444;2023-08-20T13:22:00;10.05;;;9.05;;
17145;SDS011;8688;54.444;18.444;2023-08-20T13:24:28;10.55;;;9.55;;
17145;SDS011;8688;54.444;18.444;2023-08-20T13:26:56;10.25;;;9.23;;
17145;SDS011;8688;54.444;18.444;2023-08-20T13:29:33;10.85;;;9.18;;
17145;SDS011;8688;54.444;18.444;2023-08-20T13:32:04;10.55;;;9.55;;
17145;SDS011;8688;54.444;18.444;2023-08-20T13:34:34;10.65;;;9.65;;
17145;SDS011;8688;54.444;18.444;2023-08-20T13:37:02;10.90;;;9.80;;
17145;SDS011;8688;54.444;18.444;2023-08-20T13:39:30;10.77;;;9.77;;
17145;SDS011;8688;54.444;18.444;2023-08-20T13:41:58;12.63;;;9.80;;
17145;SDS011;8688;54.444;18.444;2023-08-20T13:44:28;12.90;;;10.32;;
17145;SDS011;8688;54.444;18.444;2023-08-20T13:46:57;12.45;;;10.45;;
17145;SDS011;8688;54.444;18.444;2023-08-20T13:49:25;11.45;;;10.23;;
17145;SDS011;8688;54.444;18.444;2023-08-20T13:51:54;12.30;;;10.27;;
17145;SDS011;8688;54.444;18.444;2023-08-20T13:54:22;10.43;;;9.32;;
17145;SDS011;8688;54.444;18.444;2023-08-20T13:56:50;10.32;;;9.32;;
17145;SDS011;8688;54.444;18.444;2023-08-20T13:59:19;10.90;;;9.82;;
17145;SDS011;8688;54.444;18.444;2023-08-20T14:01:48;10.02;;;9.02;;
17145;SDS011;8688;54.444;18.444;2023-08-20T14:04:19;11.65;;;9.57;;
17145;SDS011;8688;54.444;18.444;2023-08-20T14:06:49;11.32;;;10.27;;
17145;SDS011;8688;54.444;18.444;2023-08-20T14:09:21;11.45;;;10.25;;
17145;SDS011;8688;54.444;18.444;2023-08-20T14:11:50;10.18;;;9.18;;
17145;SDS011;8688;54.444;18.444;2023-08-20T14:14:18;11.05;;;9.32;;
17145;SDS011;8688;54.444;18.444;2023-08-20T14:16:53;10.75;;;9.65;;
17145;SDS011;8688;54.444;18.444;2023-08-20T14:19:21;15.23;;;10.38;;
17145;SDS011;8688;54.444;18.444;2023-08-20T14:21:50;11.35;;;9.48;;
17145;SDS011;8688;54.444;18.444;2023-08-20T14:24:18;11.68;;;10.50;;
17145;SDS011;8688;54.444;18.444;2023-08-20T14:26:47;10.52;;;9.45;;
17145;SDS011;8688;54.444;18.444;2023-08-20T14:29:15;10.40;;;9.50;;
17145;SDS011;8688;54.444;18.444;2023-08-20T14:31:43;11.43;;;10.23;;
17145;SDS011;8688;54.444;18.444;2023-08-20T14:34:11;11.93;;;9.93;;
17145;SDS011;8688;54.444;18.444;2023-08-20T14:36:39;11.05;;;10.00;;
17145;SDS011;8688;54.444;18.444;2023-08-20T14:39:07;10.57;;;9.43;;
17145;SDS011;8688;54.444;18.444;2023-08-20T14:41:35;12.27;;;10.27;;
17145;SDS011;8688;54.444;18.444;2023-08-20T14:44:05;10.23;;;9.15;;
17145;SDS011;8688;54.444;18.444;2023-08-20T14:46:33;10.57;;;9.35;;
17145;SDS011;8688;54.444;18.444;2023-08-20T14:49:01;11.80;;;9.60;;